Ivybridge, United Kingdom
Current Conditions -  °F | °C
As of 4:20 PM on Thursday 23 Oct 2014 (Local Time) from EGTE Reporting Station
Broken Clouds Broken Clouds  
Wind Chill: 61°   Ceiling: 2000
Heat Index: 61°   Visibility: 6mi
Dew Point: 55°   Wind: 8mph
Humidity: 82%   Direction: 200°SSW
Pressure: 30.06"   Gusts: NA
Location:  50.39°N, 3.92°W
Report Text: EGTE 231520Z 20007KT 9999 BKN020 16/13 Q1018
Loading
Personal Weather Stations






























Interactive Weather Map
Tropical Storm Tracking
New forecast layout! Learn more

10-Day Weather Forecast

Advertisements
Track Severe Weather on mobile